sensor_id;sensor_type;location;lat;lon;timestamp;P1;durP1;ratioP1;P2;durP2;ratioP2
22571;SDS011;11452;53.368;14.658;2024-03-17T00:00:43;4.00;;;1.30;;
22571;SDS011;11452;53.368;14.658;2024-03-17T00:05:48;4.40;;;1.23;;
22571;SDS011;11452;53.368;14.658;2024-03-17T00:10:57;8.50;;;1.60;;
22571;SDS011;11452;53.368;14.658;2024-03-17T00:16:03;5.23;;;1.63;;
22571;SDS011;11452;53.368;14.658;2024-03-17T00:21:09;2.73;;;1.00;;
22571;SDS011;11452;53.368;14.658;2024-03-17T00:26:15;3.63;;;1.10;;
22571;SDS011;11452;53.368;14.658;2024-03-17T00:31:22;5.53;;;1.53;;
22571;SDS011;11452;53.368;14.658;2024-03-17T00:36:28;5.00;;;1.27;;
22571;SDS011;11452;53.368;14.658;2024-03-17T00:41:34;1.47;;;0.80;;
22571;SDS011;11452;53.368;14.658;2024-03-17T00:46:39;7.33;;;1.37;;
22571;SDS011;11452;53.368;14.658;2024-03-17T00:51:46;4.77;;;1.47;;
22571;SDS011;11452;53.368;14.658;2024-03-17T00:56:53;3.27;;;1.10;;
22571;SDS011;11452;53.368;14.658;2024-03-17T01:01:59;2.70;;;1.30;;
22571;SDS011;11452;53.368;14.658;2024-03-17T01:07:06;5.37;;;1.57;;
22571;SDS011;11452;53.368;14.658;2024-03-17T01:12:11;7.67;;;1.77;;
22571;SDS011;11452;53.368;14.658;2024-03-17T01:17:17;5.03;;;1.27;;
22571;SDS011;11452;53.368;14.658;2024-03-17T01:22:25;5.97;;;1.40;;
22571;SDS011;11452;53.368;14.658;2024-03-17T01:27:31;4.47;;;1.20;;
22571;SDS011;11452;53.368;14.658;2024-03-17T01:32:36;3.77;;;1.30;;
22571;SDS011;11452;53.368;14.658;2024-03-17T01:37:42;5.53;;;1.60;;
22571;SDS011;11452;53.368;14.658;2024-03-17T01:42:48;3.90;;;1.23;;
22571;SDS011;11452;53.368;14.658;2024-03-17T01:47:54;4.17;;;1.40;;
22571;SDS011;11452;53.368;14.658;2024-03-17T01:53:02;4.60;;;1.50;;
22571;SDS011;11452;53.368;14.658;2024-03-17T01:58:09;4.20;;;1.37;;
22571;SDS011;11452;53.368;14.658;2024-03-17T02:03:16;5.77;;;1.40;;
22571;SDS011;11452;53.368;14.658;2024-03-17T02:08:22;4.47;;;1.10;;
22571;SDS011;11452;53.368;14.658;2024-03-17T02:13:28;5.97;;;1.40;;
22571;SDS011;11452;53.368;14.658;2024-03-17T02:18:34;5.07;;;1.80;;
22571;SDS011;11452;53.368;14.658;2024-03-17T02:23:41;5.43;;;1.57;;
22571;SDS011;11452;53.368;14.658;2024-03-17T02:28:47;6.50;;;1.93;;
22571;SDS011;11452;53.368;14.658;2024-03-17T02:33:53;4.67;;;1.27;;
22571;SDS011;11452;53.368;14.658;2024-03-17T02:38:58;5.40;;;1.77;;
22571;SDS011;11452;53.368;14.658;2024-03-17T02:44:22;8.63;;;1.60;;
22571;SDS011;11452;53.368;14.658;2024-03-17T02:49:28;6.37;;;1.60;;
22571;SDS011;11452;53.368;14.658;2024-03-17T02:54:41;8.13;;;2.20;;
22571;SDS011;11452;53.368;14.658;2024-03-17T02:59:48;4.97;;;1.70;;
22571;SDS011;11452;53.368;14.658;2024-03-17T03:04:54;6.30;;;1.93;;
22571;SDS011;11452;53.368;14.658;2024-03-17T03:09:59;2.60;;;1.30;;
22571;SDS011;11452;53.368;14.658;2024-03-17T03:15:05;2.60;;;1.10;;
22571;SDS011;11452;53.368;14.658;2024-03-17T03:20:11;4.80;;;1.10;;
22571;SDS011;11452;53.368;14.658;2024-03-17T03:25:17;2.50;;;0.97;;
22571;SDS011;11452;53.368;14.658;2024-03-17T03:30:24;4.80;;;1.10;;
22571;SDS011;11452;53.368;14.658;2024-03-17T03:35:30;3.33;;;1.30;;
22571;SDS011;11452;53.368;14.658;2024-03-17T03:40:36;4.43;;;1.20;;
22571;SDS011;11452;53.368;14.658;2024-03-17T03:45:42;2.93;;;1.20;;
22571;SDS011;11452;53.368;14.658;2024-03-17T03:50:49;3.00;;;1.00;;
22571;SDS011;11452;53.368;14.658;2024-03-17T03:55:54;2.27;;;0.87;;
22571;SDS011;11452;53.368;14.658;2024-03-17T04:01:03;2.40;;;0.90;;
22571;SDS011;11452;53.368;14.658;2024-03-17T04:06:11;3.00;;;0.90;;
22571;SDS011;11452;53.368;14.658;2024-03-17T04:11:18;1.10;;;0.80;;
22571;SDS011;11452;53.368;14.658;2024-03-17T04:16:24;1.33;;;0.70;;
22571;SDS011;11452;53.368;14.658;2024-03-17T04:21:29;1.63;;;0.60;;
22571;SDS011;11452;53.368;14.658;2024-03-17T04:26:35;1.23;;;0.97;;
22571;SDS011;11452;53.368;14.658;2024-03-17T04:31:42;1.83;;;0.70;;
22571;SDS011;11452;53.368;14.658;2024-03-17T04:36:49;1.60;;;0.50;;
22571;SDS011;11452;53.368;14.658;2024-03-17T04:41:55;2.33;;;0.77;;
22571;SDS011;11452;53.368;14.658;2024-03-17T04:47:01;0.80;;;0.60;;
22571;SDS011;11452;53.368;14.658;2024-03-17T04:52:09;1.50;;;0.77;;
22571;SDS011;11452;53.368;14.658;2024-03-17T04:57:15;2.83;;;0.77;;
22571;SDS011;11452;53.368;14.658;2024-03-17T05:02:21;3.07;;;0.90;;
22571;SDS011;11452;53.368;14.658;2024-03-17T05:07:27;1.70;;;0.73;;
22571;SDS011;11452;53.368;14.658;2024-03-17T05:12:32;2.70;;;0.80;;
22571;SDS011;11452;53.368;14.658;2024-03-17T05:17:38;2.70;;;1.40;;
22571;SDS011;11452;53.368;14.658;2024-03-17T05:22:43;1.53;;;0.80;;
22571;SDS011;11452;53.368;14.658;2024-03-17T05:27:51;2.17;;;0.87;;
22571;SDS011;11452;53.368;14.658;2024-03-17T05:32:56;4.13;;;0.90;;
22571;SDS011;11452;53.368;14.658;2024-03-17T05:38:02;2.67;;;0.93;;
22571;SDS011;11452;53.368;14.658;2024-03-17T05:43:07;2.97;;;1.00;;
22571;SDS011;11452;53.368;14.658;2024-03-17T05:48:13;4.10;;;1.20;;
22571;SDS011;11452;53.368;14.658;2024-03-17T05:53:19;1.83;;;1.00;;
22571;SDS011;11452;53.368;14.658;2024-03-17T05:58:27;1.93;;;0.87;;
22571;SDS011;11452;53.368;14.658;2024-03-17T06:03:33;3.13;;;1.00;;
22571;SDS011;11452;53.368;14.658;2024-03-17T06:08:42;1.03;;;0.67;;
22571;SDS011;11452;53.368;14.658;2024-03-17T06:13:48;0.93;;;0.63;;
22571;SDS011;11452;53.368;14.658;2024-03-17T06:18:54;3.40;;;0.93;;
22571;SDS011;11452;53.368;14.658;2024-03-17T06:24:00;0.97;;;0.80;;
22571;SDS011;11452;53.368;14.658;2024-03-17T06:29:06;2.33;;;0.70;;
22571;SDS011;11452;53.368;14.658;2024-03-17T06:34:11;1.57;;;0.73;;
22571;SDS011;11452;53.368;14.658;2024-03-17T06:39:19;4.07;;;1.10;;
22571;SDS011;11452;53.368;14.658;2024-03-17T06:44:25;0.80;;;0.50;;
22571;SDS011;11452;53.368;14.658;2024-03-17T06:49:33;2.47;;;1.00;;
22571;SDS011;11452;53.368;14.658;2024-03-17T06:54:39;2.30;;;1.00;;
22571;SDS011;11452;53.368;14.658;2024-03-17T06:59:44;2.00;;;0.80;;
22571;SDS011;11452;53.368;14.658;2024-03-17T07:04:52;1.53;;;0.77;;
22571;SDS011;11452;53.368;14.658;2024-03-17T07:09:57;3.27;;;0.83;;
22571;SDS011;11452;53.368;14.658;2024-03-17T07:15:05;3.50;;;1.13;;
22571;SDS011;11452;53.368;14.658;2024-03-17T07:20:12;1.20;;;1.00;;
22571;SDS011;11452;53.368;14.658;2024-03-17T07:25:18;1.80;;;0.70;;
22571;SDS011;11452;53.368;14.658;2024-03-17T07:30:24;1.83;;;0.90;;
22571;SDS011;11452;53.368;14.658;2024-03-17T07:35:29;2.13;;;0.90;;
22571;SDS011;11452;53.368;14.658;2024-03-17T07:40:35;2.73;;;0.63;;
22571;SDS011;11452;53.368;14.658;2024-03-17T07:45:41;3.80;;;0.90;;
22571;SDS011;11452;53.368;14.658;2024-03-17T07:50:53;1.37;;;0.90;;
22571;SDS011;11452;53.368;14.658;2024-03-17T07:56:03;1.97;;;0.90;;
22571;SDS011;11452;53.368;14.658;2024-03-17T08:01:10;1.63;;;0.80;;
22571;SDS011;11452;53.368;14.658;2024-03-17T08:06:17;1.50;;;0.70;;
22571;SDS011;11452;53.368;14.658;2024-03-17T08:11:22;1.63;;;1.37;;
22571;SDS011;11452;53.368;14.658;2024-03-17T08:16:31;2.13;;;1.10;;
22571;SDS011;11452;53.368;14.658;2024-03-17T08:21:37;1.80;;;1.27;;
22571;SDS011;11452;53.368;14.658;2024-03-17T08:26:44;2.20;;;1.20;;
22571;SDS011;11452;53.368;14.658;2024-03-17T08:31:50;1.03;;;0.57;;
22571;SDS011;11452;53.368;14.658;2024-03-17T08:36:55;2.40;;;0.80;;
22571;SDS011;11452;53.368;14.658;2024-03-17T08:42:01;1.20;;;0.80;;
22571;SDS011;11452;53.368;14.658;2024-03-17T08:47:08;1.50;;;0.50;;
22571;SDS011;11452;53.368;14.658;2024-03-17T08:52:14;0.80;;;0.50;;
22571;SDS011;11452;53.368;14.658;2024-03-17T08:57:20;0.43;;;0.40;;
22571;SDS011;11452;53.368;14.658;2024-03-17T09:02:26;3.10;;;1.83;;
22571;SDS011;11452;53.368;14.658;2024-03-17T09:07:32;2.27;;;1.00;;
22571;SDS011;11452;53.368;14.658;2024-03-17T09:12:38;1.17;;;0.73;;
22571;SDS011;11452;53.368;14.658;2024-03-17T09:17:44;4.70;;;2.60;;
22571;SDS011;11452;53.368;14.658;2024-03-17T09:22:50;3.63;;;0.90;;
22571;SDS011;11452;53.368;14.658;2024-03-17T09:27:55;0.47;;;0.47;;
22571;SDS011;11452;53.368;14.658;2024-03-17T09:33:02;0.93;;;0.70;;
22571;SDS011;11452;53.368;14.658;2024-03-17T09:38:08;0.90;;;0.80;;
22571;SDS011;11452;53.368;14.658;2024-03-17T09:43:14;1.17;;;0.97;;
22571;SDS011;11452;53.368;14.658;2024-03-17T09:48:20;0.80;;;0.70;;
22571;SDS011;11452;53.368;14.658;2024-03-17T09:53:26;2.37;;;1.20;;
22571;SDS011;11452;53.368;14.658;2024-03-17T09:58:33;7.87;;;3.87;;
22571;SDS011;11452;53.368;14.658;2024-03-17T10:03:48;8.27;;;5.17;;
22571;SDS011;11452;53.368;14.658;2024-03-17T10:09:05;9.63;;;5.27;;
22571;SDS011;11452;53.368;14.658;2024-03-17T10:14:16;19.70;;;8.10;;
22571;SDS011;11452;53.368;14.658;2024-03-17T10:19:23;3.37;;;1.60;;
22571;SDS011;11452;53.368;14.658;2024-03-17T10:24:32;3.83;;;2.27;;
22571;SDS011;11452;53.368;14.658;2024-03-17T10:29:38;11.70;;;5.47;;
22571;SDS011;11452;53.368;14.658;2024-03-17T10:34:45;10.60;;;4.23;;
22571;SDS011;11452;53.368;14.658;2024-03-17T10:39:52;8.33;;;3.57;;
22571;SDS011;11452;53.368;14.658;2024-03-17T10:44:58;4.17;;;1.50;;
22571;SDS011;11452;53.368;14.658;2024-03-17T10:50:05;1.33;;;1.00;;
22571;SDS011;11452;53.368;14.658;2024-03-17T10:55:19;2.60;;;1.47;;
22571;SDS011;11452;53.368;14.658;2024-03-17T11:00:31;2.37;;;1.00;;
22571;SDS011;11452;53.368;14.658;2024-03-17T11:05:37;2.47;;;1.13;;
22571;SDS011;11452;53.368;14.658;2024-03-17T11:10:50;1.10;;;0.87;;
22571;SDS011;11452;53.368;14.658;2024-03-17T11:15:58;1.00;;;0.50;;
22571;SDS011;11452;53.368;14.658;2024-03-17T11:21:30;0.50;;;0.43;;
22571;SDS011;11452;53.368;14.658;2024-03-17T11:26:31;1.03;;;0.93;;
22571;SDS011;11452;53.368;14.658;2024-03-17T11:31:44;0.93;;;0.80;;
22571;SDS011;11452;53.368;14.658;2024-03-17T11:36:50;1.23;;;0.90;;
22571;SDS011;11452;53.368;14.658;2024-03-17T11:42:04;1.73;;;0.60;;
22571;SDS011;11452;53.368;14.658;2024-03-17T11:47:07;3.30;;;1.80;;
22571;SDS011;11452;53.368;14.658;2024-03-17T11:52:13;6.00;;;3.47;;
22571;SDS011;11452;53.368;14.658;2024-03-17T11:57:21;9.43;;;4.70;;
22571;SDS011;11452;53.368;14.658;2024-03-17T12:02:31;7.30;;;3.27;;
22571;SDS011;11452;53.368;14.658;2024-03-17T12:07:41;3.93;;;2.37;;
22571;SDS011;11452;53.368;14.658;2024-03-17T12:12:50;3.87;;;2.07;;
22571;SDS011;11452;53.368;14.658;2024-03-17T12:17:56;4.97;;;2.40;;
22571;SDS011;11452;53.368;14.658;2024-03-17T12:23:04;6.73;;;3.23;;
22571;SDS011;11452;53.368;14.658;2024-03-17T12:28:16;2.00;;;1.00;;
22571;SDS011;11452;53.368;14.658;2024-03-17T12:33:23;1.57;;;1.00;;
22571;SDS011;11452;53.368;14.658;2024-03-17T12:38:28;0.70;;;0.50;;
22571;SDS011;11452;53.368;14.658;2024-03-17T12:43:34;1.73;;;0.83;;
22571;SDS011;11452;53.368;14.658;2024-03-17T12:48:41;1.93;;;1.00;;
22571;SDS011;11452;53.368;14.658;2024-03-17T12:53:46;1.77;;;0.80;;
22571;SDS011;11452;53.368;14.658;2024-03-17T12:58:52;0.70;;;0.50;;
22571;SDS011;11452;53.368;14.658;2024-03-17T13:04:16;0.87;;;0.77;;
22571;SDS011;11452;53.368;14.658;2024-03-17T13:09:22;0.70;;;0.70;;
22571;SDS011;11452;53.368;14.658;2024-03-17T13:14:29;0.70;;;0.50;;
22571;SDS011;11452;53.368;14.658;2024-03-17T13:19:35;2.13;;;0.63;;
22571;SDS011;11452;53.368;14.658;2024-03-17T13:24:41;1.43;;;0.97;;
22571;SDS011;11452;53.368;14.658;2024-03-17T13:29:47;1.20;;;0.70;;
22571;SDS011;11452;53.368;14.658;2024-03-17T13:34:53;1.07;;;0.60;;
22571;SDS011;11452;53.368;14.658;2024-03-17T13:39:59;3.07;;;1.90;;
22571;SDS011;11452;53.368;14.658;2024-03-17T13:45:07;17.20;;;8.67;;
22571;SDS011;11452;53.368;14.658;2024-03-17T13:50:15;22.30;;;10.50;;
22571;SDS011;11452;53.368;14.658;2024-03-17T13:55:22;20.50;;;11.70;;
22571;SDS011;11452;53.368;14.658;2024-03-17T14:00:29;15.03;;;6.17;;
22571;SDS011;11452;53.368;14.658;2024-03-17T14:05:37;8.20;;;4.60;;
22571;SDS011;11452;53.368;14.658;2024-03-17T14:10:44;11.20;;;6.73;;
22571;SDS011;11452;53.368;14.658;2024-03-17T14:15:51;17.50;;;9.57;;
22571;SDS011;11452;53.368;14.658;2024-03-17T14:20:58;19.63;;;10.77;;
22571;SDS011;11452;53.368;14.658;2024-03-17T14:26:04;13.47;;;8.00;;
22571;SDS011;11452;53.368;14.658;2024-03-17T14:31:10;15.63;;;7.53;;
22571;SDS011;11452;53.368;14.658;2024-03-17T14:36:16;11.33;;;5.03;;
22571;SDS011;11452;53.368;14.658;2024-03-17T14:41:21;21.97;;;10.73;;
22571;SDS011;11452;53.368;14.658;2024-03-17T14:46:27;12.27;;;6.80;;
22571;SDS011;11452;53.368;14.658;2024-03-17T14:51:34;8.97;;;5.27;;
22571;SDS011;11452;53.368;14.658;2024-03-17T14:56:39;12.33;;;5.13;;
22571;SDS011;11452;53.368;14.658;2024-03-17T15:01:45;15.33;;;7.27;;
22571;SDS011;11452;53.368;14.658;2024-03-17T15:06:51;13.83;;;7.17;;
22571;SDS011;11452;53.368;14.658;2024-03-17T15:11:59;7.60;;;4.57;;
22571;SDS011;11452;53.368;14.658;2024-03-17T15:17:06;10.57;;;4.37;;
22571;SDS011;11452;53.368;14.658;2024-03-17T15:22:13;8.20;;;3.60;;
22571;SDS011;11452;53.368;14.658;2024-03-17T15:27:19;3.53;;;2.27;;
22571;SDS011;11452;53.368;14.658;2024-03-17T15:32:26;5.43;;;2.93;;
22571;SDS011;11452;53.368;14.658;2024-03-17T15:37:32;8.10;;;4.03;;
22571;SDS011;11452;53.368;14.658;2024-03-17T15:42:38;3.20;;;1.93;;
22571;SDS011;11452;53.368;14.658;2024-03-17T15:47:43;2.33;;;1.60;;
22571;SDS011;11452;53.368;14.658;2024-03-17T15:52:49;2.50;;;1.87;;
22571;SDS011;11452;53.368;14.658;2024-03-17T15:57:55;5.80;;;3.23;;
22571;SDS011;11452;53.368;14.658;2024-03-17T16:03:01;4.80;;;2.27;;
22571;SDS011;11452;53.368;14.658;2024-03-17T16:08:08;2.63;;;1.10;;
22571;SDS011;11452;53.368;14.658;2024-03-17T16:13:14;2.93;;;1.90;;
22571;SDS011;11452;53.368;14.658;2024-03-17T16:18:23;2.87;;;1.70;;
22571;SDS011;11452;53.368;14.658;2024-03-17T16:23:30;16.43;;;8.00;;
22571;SDS011;11452;53.368;14.658;2024-03-17T16:28:38;11.10;;;6.43;;
22571;SDS011;11452;53.368;14.658;2024-03-17T16:33:45;3.50;;;2.23;;
22571;SDS011;11452;53.368;14.658;2024-03-17T16:38:54;1.67;;;1.57;;
22571;SDS011;11452;53.368;14.658;2024-03-17T16:49:21;4.50;;;2.37;;
22571;SDS011;11452;53.368;14.658;2024-03-17T16:54:28;7.13;;;4.30;;
22571;SDS011;11452;53.368;14.658;2024-03-17T16:59:36;6.60;;;3.27;;
22571;SDS011;11452;53.368;14.658;2024-03-17T17:04:46;3.17;;;2.00;;
22571;SDS011;11452;53.368;14.658;2024-03-17T17:09:53;1.20;;;1.10;;
22571;SDS011;11452;53.368;14.658;2024-03-17T17:14:58;1.80;;;1.30;;
22571;SDS011;11452;53.368;14.658;2024-03-17T17:20:06;1.10;;;0.80;;
22571;SDS011;11452;53.368;14.658;2024-03-17T17:25:14;0.70;;;0.70;;
22571;SDS011;11452;53.368;14.658;2024-03-17T17:30:20;1.47;;;0.90;;
22571;SDS011;11452;53.368;14.658;2024-03-17T17:35:26;0.70;;;0.63;;
22571;SDS011;11452;53.368;14.658;2024-03-17T17:40:37;1.00;;;0.90;;
22571;SDS011;11452;53.368;14.658;2024-03-17T17:45:44;1.53;;;1.37;;
22571;SDS011;11452;53.368;14.658;2024-03-17T17:50:53;3.47;;;1.87;;
22571;SDS011;11452;53.368;14.658;2024-03-17T17:56:04;2.50;;;1.87;;
22571;SDS011;11452;53.368;14.658;2024-03-17T18:01:12;1.97;;;1.60;;
22571;SDS011;11452;53.368;14.658;2024-03-17T18:06:19;2.27;;;1.50;;
22571;SDS011;11452;53.368;14.658;2024-03-17T18:11:24;1.67;;;1.40;;
22571;SDS011;11452;53.368;14.658;2024-03-17T18:16:30;2.57;;;1.90;;
22571;SDS011;11452;53.368;14.658;2024-03-17T18:21:37;1.63;;;1.47;;
22571;SDS011;11452;53.368;14.658;2024-03-17T18:26:43;2.63;;;1.80;;
22571;SDS011;11452;53.368;14.658;2024-03-17T18:31:49;2.53;;;1.50;;
22571;SDS011;11452;53.368;14.658;2024-03-17T18:36:56;2.87;;;1.70;;
22571;SDS011;11452;53.368;14.658;2024-03-17T18:42:03;1.70;;;1.60;;
22571;SDS011;11452;53.368;14.658;2024-03-17T18:47:11;2.77;;;2.10;;
22571;SDS011;11452;53.368;14.658;2024-03-17T18:52:16;4.60;;;2.57;;
22571;SDS011;11452;53.368;14.658;2024-03-17T18:57:22;4.00;;;2.50;;
22571;SDS011;11452;53.368;14.658;2024-03-17T19:02:28;5.20;;;3.50;;
22571;SDS011;11452;53.368;14.658;2024-03-17T19:07:36;4.57;;;3.40;;
22571;SDS011;11452;53.368;14.658;2024-03-17T19:12:42;6.13;;;4.10;;
22571;SDS011;11452;53.368;14.658;2024-03-17T19:17:48;4.93;;;2.90;;
22571;SDS011;11452;53.368;14.658;2024-03-17T19:22:56;4.73;;;3.57;;
22571;SDS011;11452;53.368;14.658;2024-03-17T19:28:01;5.50;;;3.33;;
22571;SDS011;11452;53.368;14.658;2024-03-17T19:33:09;7.43;;;4.10;;
22571;SDS011;11452;53.368;14.658;2024-03-17T19:38:15;7.83;;;6.23;;
22571;SDS011;11452;53.368;14.658;2024-03-17T19:43:20;8.90;;;5.07;;
22571;SDS011;11452;53.368;14.658;2024-03-17T19:48:27;8.80;;;5.37;;
22571;SDS011;11452;53.368;14.658;2024-03-17T19:53:33;7.57;;;4.23;;
22571;SDS011;11452;53.368;14.658;2024-03-17T19:58:38;7.57;;;5.53;;
22571;SDS011;11452;53.368;14.658;2024-03-17T20:03:46;8.23;;;4.87;;
22571;SDS011;11452;53.368;14.658;2024-03-17T20:08:54;7.67;;;4.63;;
22571;SDS011;11452;53.368;14.658;2024-03-17T20:14:00;6.30;;;5.00;;
22571;SDS011;11452;53.368;14.658;2024-03-17T20:19:06;8.90;;;5.77;;
22571;SDS011;11452;53.368;14.658;2024-03-17T20:24:11;6.13;;;4.80;;
22571;SDS011;11452;53.368;14.658;2024-03-17T20:29:17;8.50;;;6.07;;
22571;SDS011;11452;53.368;14.658;2024-03-17T20:34:23;8.43;;;6.67;;
22571;SDS011;11452;53.368;14.658;2024-03-17T20:39:29;8.40;;;6.27;;
22571;SDS011;11452;53.368;14.658;2024-03-17T20:44:36;7.50;;;6.33;;
22571;SDS011;11452;53.368;14.658;2024-03-17T20:49:41;7.97;;;6.23;;
22571;SDS011;11452;53.368;14.658;2024-03-17T20:54:49;7.20;;;5.40;;
22571;SDS011;11452;53.368;14.658;2024-03-17T20:59:55;7.90;;;5.73;;
22571;SDS011;11452;53.368;14.658;2024-03-17T21:05:06;7.60;;;5.17;;
22571;SDS011;11452;53.368;14.658;2024-03-17T21:10:13;7.77;;;5.10;;
22571;SDS011;11452;53.368;14.658;2024-03-17T21:15:19;9.40;;;5.43;;
22571;SDS011;11452;53.368;14.658;2024-03-17T21:20:25;8.67;;;5.53;;
22571;SDS011;11452;53.368;14.658;2024-03-17T21:25:31;7.13;;;5.00;;
22571;SDS011;11452;53.368;14.658;2024-03-17T21:30:36;8.97;;;6.40;;
22571;SDS011;11452;53.368;14.658;2024-03-17T21:35:42;6.67;;;5.20;;
22571;SDS011;11452;53.368;14.658;2024-03-17T21:40:48;4.90;;;4.17;;
22571;SDS011;11452;53.368;14.658;2024-03-17T21:46:05;5.33;;;3.93;;
22571;SDS011;11452;53.368;14.658;2024-03-17T21:51:04;3.73;;;3.30;;
22571;SDS011;11452;53.368;14.658;2024-03-17T21:56:10;4.30;;;3.20;;
22571;SDS011;11452;53.368;14.658;2024-03-17T22:01:15;4.30;;;3.00;;
22571;SDS011;11452;53.368;14.658;2024-03-17T22:06:23;5.70;;;3.50;;
22571;SDS011;11452;53.368;14.658;2024-03-17T22:11:29;3.63;;;3.30;;
22571;SDS011;11452;53.368;14.658;2024-03-17T22:16:35;4.33;;;2.93;;
22571;SDS011;11452;53.368;14.658;2024-03-17T22:21:44;3.47;;;2.57;;
22571;SDS011;11452;53.368;14.658;2024-03-17T22:26:50;2.60;;;2.20;;
22571;SDS011;11452;53.368;14.658;2024-03-17T22:31:55;2.30;;;2.10;;
22571;SDS011;11452;53.368;14.658;2024-03-17T22:37:01;2.70;;;2.10;;
22571;SDS011;11452;53.368;14.658;2024-03-17T22:42:08;2.77;;;2.17;;
22571;SDS011;11452;53.368;14.658;2024-03-17T22:47:14;2.40;;;2.13;;
22571;SDS011;11452;53.368;14.658;2024-03-17T22:52:19;2.53;;;2.23;;
22571;SDS011;11452;53.368;14.658;2024-03-17T22:57:25;2.93;;;2.10;;
22571;SDS011;11452;53.368;14.658;2024-03-17T23:02:31;2.43;;;1.67;;
22571;SDS011;11452;53.368;14.658;2024-03-17T23:07:36;1.63;;;1.53;;
22571;SDS011;11452;53.368;14.658;2024-03-17T23:12:42;2.27;;;1.50;;
22571;SDS011;11452;53.368;14.658;2024-03-17T23:17:49;3.90;;;2.03;;
22571;SDS011;11452;53.368;14.658;2024-03-17T23:22:54;2.30;;;1.37;;
22571;SDS011;11452;53.368;14.658;2024-03-17T23:28:00;1.70;;;1.30;;
22571;SDS011;11452;53.368;14.658;2024-03-17T23:33:06;1.80;;;1.60;;
22571;SDS011;11452;53.368;14.658;2024-03-17T23:38:12;1.90;;;1.47;;
22571;SDS011;11452;53.368;14.658;2024-03-17T23:43:18;2.50;;;1.40;;
22571;SDS011;11452;53.368;14.658;2024-03-17T23:48:23;2.03;;;1.70;;
22571;SDS011;11452;53.368;14.658;2024-03-17T23:53:29;1.10;;;0.90;;
22571;SDS011;11452;53.368;14.658;2024-03-17T23:58:35;1.40;;;1.30;;
